Time;durP1;ratioP1;P1;durP2;ratioP2;P2;SDS_P1;SDS_P2;PMS_P1;PMS_P2;Temp;Humidity;BMP_temperature;BMP_pressure;BME280_temperature;BME280_humidity;BME280_pressure;Samples;Min_cycle;Max_cycle;Signal;HPM_P1;HPM_P2
2022/03/13 00:00:39;;;;;;;35.10;17.63;;;6.80;99.90;;;;;;5132949;27;20044;-76
2022/03/13 00:03:09;;;;;;;28.80;17.53;;;6.90;99.90;;;;;;5133769;27;20066;-76
2022/03/13 00:05:41;;;;;;;24.40;16.07;;;6.80;99.90;;;;;;5134059;27;20039;-76
2022/03/13 00:08:24;;;;;;;23.00;16.35;;;6.80;99.90;;;;;;5134351;27;20071;-76
2022/03/13 00:11:07;;;;;;;26.20;16.53;;;6.80;99.90;;;;;;5131960;27;20062;-77
2022/03/13 00:13:36;;;;;;;25.37;16.00;;;6.70;99.90;;;;;;5132545;27;20043;-78
2022/03/13 00:16:08;;;;;;;24.57;16.20;;;6.70;99.90;;;;;;5132274;27;20047;-78
2022/03/13 00:18:41;;;;;;;24.90;15.35;;;6.70;99.90;;;;;;5114587;27;20039;-78
2022/03/13 00:21:10;;;;;;;25.67;16.90;;;6.70;99.90;;;;;;5133543;27;20039;-78
2022/03/13 00:23:35;;;;;;;25.83;17.23;;;6.70;99.90;;;;;;5096295;27;20097;-78
2022/03/13 00:26:02;;;;;;;24.83;16.80;;;6.70;99.90;;;;;;5116127;27;20776;-78
2022/03/13 00:28:28;;;;;;;27.40;16.40;;;6.70;99.90;;;;;;5133702;27;20054;-78
2022/03/13 00:30:54;;;;;;;30.23;16.40;;;6.70;99.90;;;;;;5131872;27;20040;-79
2022/03/13 00:33:20;;;;;;;25.17;16.97;;;6.60;99.90;;;;;;5132981;27;20129;-78
2022/03/13 00:35:46;;;;;;;26.07;17.30;;;6.60;99.90;;;;;;5130614;27;20602;-78
2022/03/13 00:38:12;;;;;;;22.70;16.60;;;6.60;99.90;;;;;;5117122;27;20074;-80
2022/03/13 00:40:39;;;;;;;28.00;17.20;;;6.60;99.90;;;;;;5117635;27;20043;-78
2022/03/13 00:43:05;;;;;;;26.27;17.17;;;6.50;99.90;;;;;;5114313;27;20035;-78
2022/03/13 00:45:31;;;;;;;25.83;16.90;;;6.60;99.90;;;;;;5130657;27;20835;-78
2022/03/13 00:47:57;;;;;;;26.03;17.37;;;6.60;99.90;;;;;;5127982;27;20056;-78
2022/03/13 00:50:23;;;;;;;26.97;17.73;;;6.60;99.90;;;;;;5097028;28;20130;-78
2022/03/13 00:52:49;;;;;;;26.40;17.00;;;6.60;99.90;;;;;;5113371;28;20078;-78
2022/03/13 00:55:15;;;;;;;25.40;16.30;;;6.60;99.90;;;;;;5115071;28;20039;-78
2022/03/13 00:57:43;;;;;;;24.87;16.67;;;6.60;99.90;;;;;;5114198;28;20047;-78
2022/03/13 01:00:10;;;;;;;24.53;16.47;;;6.60;99.90;;;;;;5098765;28;20085;-78
2022/03/13 01:02:37;;;;;;;25.90;17.50;;;6.60;99.90;;;;;;5114707;28;20517;-78
2022/03/13 01:05:03;;;;;;;24.63;16.10;;;6.60;99.90;;;;;;5080078;28;20049;-78
2022/03/13 01:07:29;;;;;;;25.67;15.97;;;6.60;99.90;;;;;;5076238;28;20074;-78
2022/03/13 01:09:55;;;;;;;25.23;17.90;;;6.60;99.90;;;;;;5114581;28;20090;-78
2022/03/13 01:12:21;;;;;;;29.43;19.10;;;6.60;99.90;;;;;;5097442;28;20056;-77
2022/03/13 01:14:47;;;;;;;25.97;17.13;;;6.60;99.90;;;;;;5113886;28;20054;-77
2022/03/13 01:17:13;;;;;;;24.83;16.13;;;6.60;99.90;;;;;;5095361;28;20074;-77
2022/03/13 01:19:39;;;;;;;26.90;16.47;;;6.60;99.90;;;;;;5095685;28;20099;-78
2022/03/13 01:22:06;;;;;;;25.67;16.50;;;6.60;99.90;;;;;;5115059;28;20115;-78
2022/03/13 01:24:33;;;;;;;28.10;17.03;;;6.70;99.90;;;;;;5095761;28;20055;-78
2022/03/13 01:27:02;;;;;;;27.37;17.20;;;6.60;99.90;;;;;;5117041;28;20055;-78
2022/03/13 01:29:29;;;;;;;25.00;17.90;;;6.70;99.90;;;;;;5116525;28;20047;-79
2022/03/13 01:31:55;;;;;;;26.67;16.83;;;6.70;99.90;;;;;;5118108;28;20051;-77
2022/03/13 01:34:34;;;;;;;30.70;17.47;;;6.60;99.90;;;;;;5102293;28;20144;-78
2022/03/13 01:37:01;;;;;;;25.90;17.77;;;6.70;99.90;;;;;;5114720;28;20056;-78
2022/03/13 01:39:28;;;;;;;25.70;16.77;;;6.70;99.90;;;;;;5116511;28;20058;-78
2022/03/13 01:41:54;;;;;;;26.33;17.50;;;6.70;99.90;;;;;;5098704;28;20059;-78
2022/03/13 01:44:20;;;;;;;25.73;16.70;;;6.60;99.90;;;;;;5116222;28;20043;-78
2022/03/13 01:46:46;;;;;;;30.53;17.00;;;6.70;99.90;;;;;;5098769;28;20052;-78
2022/03/13 01:49:13;;;;;;;24.37;16.20;;;6.70;99.90;;;;;;5132307;27;20055;-78
2022/03/13 01:51:39;;;;;;;27.07;15.87;;;6.70;99.90;;;;;;5135173;27;20371;-78
2022/03/13 01:54:08;;;;;;;26.03;16.80;;;6.70;99.90;;;;;;5136491;27;20050;-78
2022/03/13 01:56:35;;;;;;;30.70;17.93;;;6.70;99.90;;;;;;5116980;27;20494;-78
2022/03/13 01:59:02;;;;;;;27.67;17.57;;;6.70;99.90;;;;;;5120445;27;20051;-78
2022/03/13 02:01:28;;;;;;;27.40;16.80;;;6.70;99.90;;;;;;5134546;27;20102;-78
2022/03/13 02:03:55;;;;;;;26.03;17.10;;;6.70;99.90;;;;;;5134813;27;20154;-79
2022/03/13 02:06:23;;;;;;;25.03;17.50;;;6.70;99.90;;;;;;5135323;27;20086;-79
2022/03/13 02:08:50;;;;;;;24.27;16.93;;;6.70;99.90;;;;;;5135420;27;20039;-78
2022/03/13 02:11:19;;;;;;;27.17;16.53;;;6.70;99.90;;;;;;5116852;27;20047;-78
2022/03/13 02:13:55;;;;;;;24.33;16.77;;;6.70;99.90;;;;;;5133891;27;20474;-78
2022/03/13 02:16:21;;;;;;;30.40;16.83;;;6.70;99.90;;;;;;5121044;27;20049;-76
2022/03/13 02:18:53;;;;;;;28.20;16.57;;;6.70;99.90;;;;;;5130888;27;20043;-78
2022/03/13 02:21:23;;;;;;;26.48;17.30;;;6.70;99.90;;;;;;5117565;27;20035;-77
2022/03/13 02:23:49;;;;;;;26.43;16.23;;;6.70;99.90;;;;;;5131504;27;20051;-78
2022/03/13 02:26:15;;;;;;;27.67;17.63;;;6.70;99.90;;;;;;5135130;27;20623;-78
2022/03/13 02:28:51;;;;;;;26.70;16.37;;;6.70;99.90;;;;;;5115451;27;20070;-78
2022/03/13 02:31:29;;;;;;;26.47;16.87;;;6.70;99.90;;;;;;5133221;27;20093;-79
2022/03/13 02:33:56;;;;;;;24.63;16.57;;;6.70;99.90;;;;;;5134560;27;20042;-78
2022/03/13 02:36:31;;;;;;;26.43;17.30;;;6.70;99.90;;;;;;5132870;27;20051;-78
2022/03/13 02:39:02;;;;;;;26.77;16.93;;;6.70;99.90;;;;;;5134381;27;20055;-78
2022/03/13 02:41:28;;;;;;;24.80;16.30;;;6.70;99.90;;;;;;5131365;27;20472;-79
2022/03/13 02:43:54;;;;;;;27.07;15.80;;;6.70;99.90;;;;;;5134697;27;20086;-78
2022/03/13 02:46:42;;;;;;;27.73;16.97;;;6.70;99.90;;;;;;5137178;27;20158;-78
2022/03/13 02:49:08;;;;;;;26.23;16.63;;;6.70;99.90;;;;;;5133957;27;20059;-77
2022/03/13 02:51:34;;;;;;;26.67;16.67;;;6.70;99.90;;;;;;5119381;27;20080;-78
2022/03/13 02:53:59;;;;;;;28.97;18.10;;;6.70;99.90;;;;;;5134933;27;20043;-78
2022/03/13 02:56:25;;;;;;;28.47;18.30;;;6.70;99.90;;;;;;5119554;27;20046;-79
2022/03/13 02:58:51;;;;;;;25.50;17.80;;;6.60;99.90;;;;;;5115766;27;20044;-78
2022/03/13 03:01:18;;;;;;;26.03;16.83;;;6.60;99.90;;;;;;5134018;27;20073;-78
2022/03/13 03:03:44;;;;;;;27.13;17.77;;;6.60;99.90;;;;;;5116730;27;20118;-78
2022/03/13 03:06:13;;;;;;;25.47;16.20;;;6.60;99.90;;;;;;5098251;27;20109;-78
2022/03/13 03:08:39;;;;;;;24.00;16.30;;;6.60;99.90;;;;;;5115021;27;20040;-78
2022/03/13 03:11:05;;;;;;;29.27;17.03;;;6.50;99.90;;;;;;5135156;27;20079;-79
2022/03/13 03:13:31;;;;;;;26.13;16.83;;;6.50;99.90;;;;;;5137921;27;20046;-78
2022/03/13 03:15:57;;;;;;;25.60;17.80;;;6.50;99.90;;;;;;5133972;27;20051;-79
2022/03/13 03:18:23;;;;;;;27.23;17.50;;;6.50;99.90;;;;;;5136093;27;20082;-79
2022/03/13 03:20:49;;;;;;;26.70;16.57;;;6.40;99.90;;;;;;5115755;27;20082;-78
2022/03/13 03:23:15;;;;;;;26.73;17.00;;;6.40;99.90;;;;;;5133058;27;20043;-78
2022/03/13 03:25:41;;;;;;;24.77;16.73;;;6.40;99.90;;;;;;5116287;27;20051;-79
2022/03/13 03:28:07;;;;;;;26.93;18.07;;;6.30;99.90;;;;;;5117641;27;20086;-78
2022/03/13 03:30:33;;;;;;;25.97;17.27;;;6.30;99.90;;;;;;5136306;27;20043;-78
2022/03/13 03:33:04;;;;;;;24.33;16.20;;;6.30;99.90;;;;;;5095536;28;20161;-78
2022/03/13 03:35:30;;;;;;;29.23;16.87;;;6.30;99.90;;;;;;5131912;27;20066;-78
2022/03/13 03:37:56;;;;;;;25.93;17.73;;;6.30;99.90;;;;;;5133345;27;20051;-77
2022/03/13 03:40:33;;;;;;;25.70;17.47;;;6.20;99.90;;;;;;5131351;27;20049;-79
2022/03/13 03:43:04;;;;;;;28.60;17.63;;;6.20;99.90;;;;;;5132423;27;20047;-77
2022/03/13 03:45:33;;;;;;;28.47;17.03;;;6.20;99.90;;;;;;5128017;27;20563;-78
2022/03/13 03:47:59;;;;;;;24.97;16.60;;;6.20;99.90;;;;;;5131443;27;20609;-78
2022/03/13 03:50:25;;;;;;;31.13;18.17;;;6.20;99.90;;;;;;5133123;27;20072;-78
2022/03/13 03:52:55;;;;;;;25.33;16.97;;;6.10;99.90;;;;;;5132710;27;20425;-77
2022/03/13 03:55:21;;;;;;;25.23;16.90;;;6.10;99.90;;;;;;5119778;27;20933;-79
2022/03/13 03:57:47;;;;;;;30.13;16.40;;;6.10;99.90;;;;;;5130605;27;20039;-78
2022/03/13 04:00:13;;;;;;;25.40;16.87;;;6.00;99.90;;;;;;5100195;27;20507;-77
2022/03/13 04:02:40;;;;;;;25.80;16.40;;;6.00;99.90;;;;;;5092716;27;20044;-79
2022/03/13 04:05:06;;;;;;;24.33;16.60;;;5.90;99.90;;;;;;5132685;27;20035;-78
2022/03/13 04:07:32;;;;;;;27.87;16.33;;;5.90;99.90;;;;;;5116469;27;20074;-78
2022/03/13 04:09:58;;;;;;;25.20;16.43;;;5.90;99.90;;;;;;5133945;27;20035;-78
2022/03/13 04:12:28;;;;;;;26.63;16.67;;;5.80;99.90;;;;;;5134238;27;20053;-78
2022/03/13 04:14:54;;;;;;;24.23;15.37;;;5.80;99.90;;;;;;5133768;27;20043;-79
2022/03/13 04:17:20;;;;;;;26.60;15.40;;;5.70;99.90;;;;;;5116072;27;20053;-78
2022/03/13 04:19:46;;;;;;;25.10;16.60;;;5.70;99.90;;;;;;5135100;27;20051;-78
2022/03/13 04:22:12;;;;;;;26.53;16.00;;;5.70;99.90;;;;;;5116433;27;20137;-78
2022/03/13 04:24:38;;;;;;;23.63;15.53;;;5.70;99.90;;;;;;5098939;27;20051;-78
2022/03/13 04:27:04;;;;;;;25.37;15.93;;;5.60;99.90;;;;;;5135028;27;20117;-79
2022/03/13 04:29:30;;;;;;;25.97;16.57;;;5.60;99.90;;;;;;5131561;27;20111;-78
2022/03/13 04:31:57;;;;;;;24.87;15.83;;;5.50;99.90;;;;;;5134810;27;20618;-79
2022/03/13 04:34:23;;;;;;;25.90;16.53;;;5.40;99.90;;;;;;5133208;27;20074;-78
2022/03/13 04:36:49;;;;;;;26.23;15.50;;;5.50;99.90;;;;;;5129564;27;20062;-79
2022/03/13 04:39:16;;;;;;;24.37;16.00;;;5.40;99.90;;;;;;5133778;27;20077;-78
2022/03/13 04:41:43;;;;;;;23.50;15.77;;;5.40;99.90;;;;;;5115289;27;20039;-79
2022/03/13 04:44:14;;;;;;;26.33;15.37;;;5.40;99.90;;;;;;5112868;27;20130;-80
2022/03/13 04:46:41;;;;;;;24.40;15.57;;;5.40;99.90;;;;;;5114816;27;20036;-79
2022/03/13 04:49:08;;;;;;;24.17;15.87;;;5.30;99.90;;;;;;5133803;27;20062;-79
2022/03/13 04:51:34;;;;;;;24.23;16.60;;;5.30;99.90;;;;;;5118431;27;20450;-79
2022/03/13 04:54:00;;;;;;;26.57;15.93;;;5.30;99.90;;;;;;5115641;27;20047;-78
2022/03/13 04:56:25;;;;;;;22.87;15.77;;;5.20;99.90;;;;;;5129986;27;20046;-78
2022/03/13 04:58:51;;;;;;;21.37;14.83;;;5.10;99.90;;;;;;5132362;27;20046;-78
2022/03/13 05:01:19;;;;;;;26.10;16.20;;;5.10;99.90;;;;;;5100105;27;20074;-78
2022/03/13 05:03:46;;;;;;;27.33;15.70;;;5.00;99.90;;;;;;5132350;27;20058;-78
2022/03/13 05:06:12;;;;;;;23.63;15.97;;;4.90;99.90;;;;;;5130625;27;20096;-78
2022/03/13 05:08:40;;;;;;;27.27;16.23;;;4.90;99.90;;;;;;5115668;27;20043;-79
2022/03/13 05:11:07;;;;;;;25.23;15.93;;;4.90;99.90;;;;;;5112407;27;20047;-79
2022/03/13 05:13:33;;;;;;;26.27;16.03;;;4.80;99.90;;;;;;5114443;28;20051;-79
2022/03/13 05:16:00;;;;;;;24.40;16.20;;;4.70;99.90;;;;;;5133110;27;20071;-79
2022/03/13 05:18:26;;;;;;;23.10;15.33;;;4.70;99.90;;;;;;5114355;27;20070;-78
2022/03/13 05:20:51;;;;;;;25.00;15.77;;;4.60;99.90;;;;;;5111999;28;20122;-77
2022/03/13 05:23:17;;;;;;;27.83;16.97;;;4.60;99.90;;;;;;5098380;28;20069;-79
2022/03/13 05:25:43;;;;;;;22.43;16.17;;;4.60;99.90;;;;;;5117665;28;20090;-79
2022/03/13 05:28:09;;;;;;;28.03;16.50;;;4.60;99.90;;;;;;5112991;28;20039;-79
2022/03/13 05:30:36;;;;;;;24.30;14.97;;;4.60;99.90;;;;;;5134105;28;20075;-79
2022/03/13 05:33:02;;;;;;;26.50;17.40;;;4.50;99.90;;;;;;5129552;28;20051;-77
2022/03/13 05:35:28;;;;;;;25.00;15.87;;;4.50;99.90;;;;;;5115170;28;20039;-82
2022/03/13 05:37:54;;;;;;;25.97;16.77;;;4.40;99.90;;;;;;5114860;28;20039;-78
2022/03/13 05:40:21;;;;;;;25.97;16.27;;;4.40;99.90;;;;;;5128668;28;20043;-78
2022/03/13 05:42:57;;;;;;;34.90;16.57;;;4.40;99.90;;;;;;5116478;28;20094;-77
2022/03/13 05:45:26;;;;;;;24.73;16.03;;;4.40;99.90;;;;;;5125029;28;20048;-76
2022/03/13 05:47:54;;;;;;;22.70;15.70;;;4.40;99.90;;;;;;5135031;27;20043;-77
2022/03/13 05:50:22;;;;;;;25.27;15.90;;;4.40;99.90;;;;;;5119886;27;20043;-76
2022/03/13 05:52:49;;;;;;;23.93;15.87;;;4.40;99.90;;;;;;5117048;27;20047;-77
2022/03/13 05:55:17;;;;;;;27.60;15.70;;;4.40;99.90;;;;;;5114054;27;20035;-77
2022/03/13 05:57:43;;;;;;;26.57;16.23;;;4.50;99.90;;;;;;5114495;27;20122;-76
2022/03/13 06:00:11;;;;;;;28.40;17.20;;;4.50;99.90;;;;;;5094093;27;20050;-77
2022/03/13 06:02:38;;;;;;;27.30;15.83;;;4.50;99.90;;;;;;5109630;27;20047;-77
2022/03/13 06:05:05;;;;;;;22.73;15.23;;;4.50;99.90;;;;;;5095936;27;20054;-79
2022/03/13 06:07:31;;;;;;;25.17;16.63;;;4.60;99.90;;;;;;5081193;27;20086;-76
2022/03/13 06:10:02;;;;;;;25.67;15.53;;;4.60;99.90;;;;;;5097586;27;20043;-76
2022/03/13 06:12:28;;;;;;;28.03;16.20;;;4.60;99.90;;;;;;5116903;27;20122;-78
2022/03/13 06:14:53;;;;;;;26.87;17.10;;;4.70;99.90;;;;;;5120413;27;20462;-78
2022/03/13 06:17:19;;;;;;;23.73;15.87;;;4.70;99.90;;;;;;5106593;27;20043;-80
2022/03/13 06:19:45;;;;;;;24.17;15.80;;;4.70;99.90;;;;;;5107033;27;20042;-79
2022/03/13 06:22:12;;;;;;;25.33;16.07;;;4.70;99.90;;;;;;5121942;27;20042;-78
2022/03/13 06:24:38;;;;;;;24.63;15.80;;;4.70;99.90;;;;;;5082623;27;20046;-80
2022/03/13 06:27:10;;;;;;;23.87;15.03;;;4.80;99.90;;;;;;5122148;27;20074;-78
2022/03/13 06:29:37;;;;;;;26.20;16.05;;;4.90;99.90;;;;;;5132870;27;20050;-78
2022/03/13 06:32:03;;;;;;;24.83;15.40;;;4.90;99.90;;;;;;5135887;27;20055;-78
2022/03/13 06:34:29;;;;;;;24.30;14.67;;;5.00;99.90;;;;;;5085681;27;20046;-78
2022/03/13 06:36:55;;;;;;;21.10;14.87;;;5.10;99.90;;;;;;5084319;27;20071;-78
2022/03/13 06:39:21;;;;;;;24.63;15.47;;;5.10;99.90;;;;;;5122655;27;20035;-77
2022/03/13 06:41:48;;;;;;;23.73;14.80;;;5.20;99.90;;;;;;5099690;27;20046;-78
2022/03/13 06:44:14;;;;;;;23.73;14.87;;;5.30;99.90;;;;;;5084580;27;20035;-78
2022/03/13 06:46:39;;;;;;;24.50;14.80;;;5.30;99.90;;;;;;5099039;27;20051;-78
2022/03/13 06:49:05;;;;;;;24.60;14.80;;;5.40;99.90;;;;;;5101060;27;20085;-78
2022/03/13 06:51:32;;;;;;;24.67;15.37;;;5.40;99.90;;;;;;5081649;27;20051;-78
2022/03/13 06:53:58;;;;;;;21.33;14.50;;;5.40;99.90;;;;;;5117322;27;20045;-80
2022/03/13 06:56:24;;;;;;;21.07;14.33;;;5.50;99.90;;;;;;5123874;27;20039;-79
2022/03/13 06:58:50;;;;;;;22.90;14.43;;;5.50;99.90;;;;;;5082943;27;20035;-79
2022/03/13 07:01:16;;;;;;;23.23;14.33;;;5.60;99.90;;;;;;5101989;27;20100;-78
2022/03/13 07:03:42;;;;;;;23.00;14.93;;;5.60;99.90;;;;;;5121671;27;20043;-80
2022/03/13 07:06:08;;;;;;;21.90;14.83;;;5.70;99.90;;;;;;5083661;27;20027;-79
2022/03/13 07:08:34;;;;;;;21.97;14.73;;;5.70;99.90;;;;;;5140092;27;20071;-79
2022/03/13 07:11:01;;;;;;;21.03;13.90;;;5.70;99.90;;;;;;5114657;27;20030;-78
2022/03/13 07:13:33;;;;;;;20.27;14.33;;;5.70;99.90;;;;;;5110596;27;20076;-77
2022/03/13 07:16:03;;;;;;;25.43;14.87;;;5.70;99.90;;;;;;5107710;27;20498;-75
2022/03/13 07:18:32;;;;;;;24.10;14.07;;;5.70;99.90;;;;;;5134879;27;20039;-76
2022/03/13 07:20:58;;;;;;;24.50;15.37;;;5.70;99.90;;;;;;5113995;27;20076;-74
2022/03/13 07:23:24;;;;;;;23.33;15.17;;;5.70;99.90;;;;;;5095917;27;20046;-74
2022/03/13 07:25:51;;;;;;;24.47;15.27;;;5.80;99.90;;;;;;5135723;27;20035;-73
2022/03/13 07:28:17;;;;;;;24.03;14.13;;;5.90;99.90;;;;;;5111492;27;20055;-73
2022/03/13 07:30:44;;;;;;;21.07;14.47;;;5.80;99.90;;;;;;5136658;27;20053;-74
2022/03/13 07:33:10;;;;;;;21.43;14.23;;;5.90;99.90;;;;;;5119521;27;20049;-74
2022/03/13 07:35:37;;;;;;;24.10;14.70;;;5.90;99.90;;;;;;5138003;27;20350;-74
2022/03/13 07:38:04;;;;;;;22.33;14.77;;;5.90;99.90;;;;;;5128403;27;20045;-74
2022/03/13 07:40:30;;;;;;;23.77;14.97;;;6.00;99.90;;;;;;5136642;27;20070;-74
2022/03/13 07:42:56;;;;;;;22.30;14.73;;;6.00;99.90;;;;;;5136649;27;20046;-74
2022/03/13 07:45:23;;;;;;;21.30;13.83;;;6.10;99.90;;;;;;5116195;27;20039;-74
2022/03/13 07:47:49;;;;;;;25.00;15.60;;;6.10;99.90;;;;;;5102580;27;20055;-74
2022/03/13 07:50:16;;;;;;;22.67;14.30;;;6.20;99.90;;;;;;5119394;27;20066;-73
2022/03/13 07:52:42;;;;;;;23.63;14.30;;;6.30;99.90;;;;;;5121719;27;20106;-74
2022/03/13 07:55:09;;;;;;;21.10;14.37;;;6.40;99.90;;;;;;5121927;27;20046;-74
2022/03/13 07:57:34;;;;;;;21.27;14.20;;;6.40;99.90;;;;;;5094297;27;20039;-74
2022/03/13 08:00:00;;;;;;;22.53;13.17;;;6.60;99.90;;;;;;5101562;27;20455;-74
2022/03/13 08:02:26;;;;;;;23.13;13.57;;;6.60;99.90;;;;;;5113087;27;20313;-76
2022/03/13 08:04:52;;;;;;;23.97;13.50;;;6.70;99.90;;;;;;5101176;27;20072;-76
2022/03/13 08:07:18;;;;;;;19.90;13.20;;;6.80;99.90;;;;;;5081647;27;20046;-76
2022/03/13 08:09:44;;;;;;;20.17;12.47;;;6.90;99.90;;;;;;5138060;27;20195;-77
2022/03/13 08:12:10;;;;;;;22.97;14.30;;;7.00;99.90;;;;;;5137908;27;20196;-76
2022/03/13 08:14:35;;;;;;;23.30;13.47;;;7.10;99.90;;;;;;5137913;27;20043;-76
2022/03/13 08:17:01;;;;;;;22.33;14.27;;;7.20;99.90;;;;;;5104767;27;20110;-77
2022/03/13 08:19:27;;;;;;;20.83;13.23;;;7.30;99.90;;;;;;5099156;27;20038;-74
2022/03/13 08:21:53;;;;;;;19.77;13.33;;;7.40;99.90;;;;;;5101132;27;20118;-73
2022/03/13 08:24:18;;;;;;;19.60;13.83;;;7.50;99.90;;;;;;5101499;27;20120;-74
2022/03/13 08:26:44;;;;;;;18.30;12.60;;;7.60;99.90;;;;;;5083920;27;20057;-74
2022/03/13 08:29:11;;;;;;;23.53;13.67;;;7.60;99.90;;;;;;5120361;27;20049;-74
2022/03/13 08:31:37;;;;;;;21.50;13.73;;;7.60;99.90;;;;;;5103639;27;20035;-74
2022/03/13 08:34:08;;;;;;;21.50;13.63;;;7.60;99.90;;;;;;5118080;27;20035;-75
2022/03/13 08:36:38;;;;;;;21.53;13.40;;;7.70;99.90;;;;;;5114693;27;20045;-75
2022/03/13 08:39:04;;;;;;;20.53;13.30;;;7.70;99.90;;;;;;5121353;27;20030;-74
2022/03/13 08:41:30;;;;;;;20.20;13.37;;;7.80;99.90;;;;;;5137697;27;20069;-74
2022/03/13 08:43:56;;;;;;;18.93;12.63;;;7.90;99.90;;;;;;5099812;27;20039;-74
2022/03/13 08:46:21;;;;;;;19.53;13.27;;;7.90;99.90;;;;;;5093455;27;20047;-74
2022/03/13 08:48:47;;;;;;;20.50;12.40;;;8.00;99.90;;;;;;5118246;27;20115;-74
2022/03/13 08:51:14;;;;;;;22.93;13.07;;;8.00;99.90;;;;;;5081714;27;20050;-74
2022/03/13 08:53:41;;;;;;;19.30;13.00;;;8.20;99.90;;;;;;5073954;27;20537;-74
2022/03/13 08:56:08;;;;;;;19.07;12.83;;;8.30;99.90;;;;;;5129473;27;20088;-74
2022/03/13 08:58:33;;;;;;;19.30;13.33;;;8.40;99.90;;;;;;5083342;27;20070;-74
2022/03/13 09:01:00;;;;;;;18.00;11.83;;;8.60;99.90;;;;;;5101710;27;20050;-74
2022/03/13 09:03:26;;;;;;;17.30;11.73;;;8.70;99.90;;;;;;5101682;27;20127;-73
2022/03/13 09:05:53;;;;;;;20.27;13.27;;;8.90;99.70;;;;;;5076090;27;20047;-74
2022/03/13 09:08:18;;;;;;;17.63;11.83;;;9.10;98.50;;;;;;5095601;27;20047;-74
2022/03/13 09:10:44;;;;;;;22.00;12.97;;;9.20;98.00;;;;;;5091206;27;20094;-74
2022/03/13 09:13:11;;;;;;;20.27;12.60;;;9.30;96.40;;;;;;5125341;27;20058;-74
2022/03/13 09:15:39;;;;;;;17.67;12.27;;;9.40;94.20;;;;;;5097661;27;20501;-74
2022/03/13 09:18:05;;;;;;;21.53;12.93;;;9.50;93.00;;;;;;5083655;27;20051;-75
2022/03/13 09:20:31;;;;;;;17.50;12.30;;;9.60;92.30;;;;;;5104974;27;20039;-74
2022/03/13 09:22:56;;;;;;;17.37;11.57;;;9.80;90.80;;;;;;5101674;27;20038;-74
2022/03/13 09:25:22;;;;;;;18.20;12.27;;;9.90;90.10;;;;;;5083769;28;20047;-74
2022/03/13 09:27:48;;;;;;;16.33;11.17;;;10.00;87.60;;;;;;5075399;27;20455;-74
2022/03/13 09:30:15;;;;;;;17.13;11.37;;;10.10;85.80;;;;;;5119998;27;20485;-74
2022/03/13 09:32:41;;;;;;;16.10;11.27;;;10.10;83.50;;;;;;5109673;27;20055;-74
2022/03/13 09:35:08;;;;;;;19.20;11.93;;;10.20;82.80;;;;;;5117357;27;20137;-74
2022/03/13 09:37:33;;;;;;;23.77;12.67;;;10.30;83.30;;;;;;5083623;28;20046;-74
2022/03/13 09:39:59;;;;;;;18.10;11.30;;;10.40;82.20;;;;;;5096999;28;20048;-73
2022/03/13 09:42:25;;;;;;;17.20;11.10;;;10.40;79.30;;;;;;5095777;28;20032;-74
2022/03/13 09:44:51;;;;;;;18.90;12.70;;;10.50;80.10;;;;;;5111061;27;20046;-74
2022/03/13 09:47:16;;;;;;;15.73;11.47;;;10.70;80.10;;;;;;5084916;27;20102;-74
2022/03/13 09:49:42;;;;;;;16.97;11.60;;;10.80;80.30;;;;;;5104180;27;20073;-74
2022/03/13 09:52:10;;;;;;;19.30;11.90;;;11.00;77.90;;;;;;5120994;27;20035;-74
2022/03/13 09:54:35;;;;;;;19.70;11.90;;;11.10;76.40;;;;;;5091923;27;20091;-74
2022/03/13 09:57:03;;;;;;;19.77;12.17;;;11.20;75.90;;;;;;5116662;27;20074;-74
2022/03/13 09:59:28;;;;;;;22.47;12.50;;;11.40;76.20;;;;;;5138801;27;20046;-74
2022/03/13 10:01:54;;;;;;;17.90;12.50;;;11.50;74.60;;;;;;5086996;27;20050;-76
2022/03/13 10:04:20;;;;;;;17.80;12.23;;;11.60;74.00;;;;;;5088829;27;20102;-74
2022/03/13 10:07:04;;;;;;;18.67;12.13;;;11.70;73.10;;;;;;5135071;27;20050;-74
2022/03/13 10:09:32;;;;;;;17.17;11.97;;;11.70;69.50;;;;;;5120087;27;20057;-74
2022/03/13 10:12:12;;;;;;;18.60;12.17;;;11.80;71.60;;;;;;5123563;27;20073;-75
2022/03/13 10:15:08;;;;;;;20.07;12.67;;;11.90;71.40;;;;;;5116637;27;20473;-74
2022/03/13 10:17:36;;;;;;;18.00;12.03;;;12.00;71.80;;;;;;5111882;27;20065;-74
2022/03/13 10:20:25;;;;;;;18.87;11.83;;;12.00;70.40;;;;;;5118217;27;20050;-74
2022/03/13 10:22:59;;;;;;;17.40;11.90;;;12.00;69.10;;;;;;5116038;27;20115;-74
2022/03/13 10:25:33;;;;;;;21.83;12.67;;;11.90;69.60;;;;;;5141504;27;20050;-74
2022/03/13 10:28:12;;;;;;;17.67;12.13;;;11.90;70.00;;;;;;5101922;27;20054;-74
2022/03/13 10:30:38;;;;;;;17.97;11.93;;;11.80;69.80;;;;;;5127097;27;20034;-74
2022/03/13 10:33:06;;;;;;;18.07;12.07;;;11.90;71.50;;;;;;5112933;27;20103;-74
2022/03/13 10:35:32;;;;;;;19.17;12.07;;;12.00;70.80;;;;;;5099554;27;20042;-74
2022/03/13 10:37:58;;;;;;;20.30;13.20;;;12.10;70.20;;;;;;5099780;27;20030;-77
2022/03/13 10:40:32;;;;;;;18.17;12.50;;;12.10;69.90;;;;;;5132818;27;20085;-74
2022/03/13 10:43:08;;;;;;;19.73;13.17;;;12.20;68.70;;;;;;5108146;27;20047;-75
2022/03/13 10:45:36;;;;;;;19.33;12.20;;;12.30;68.90;;;;;;5137234;27;20095;-75
2022/03/13 10:48:28;;;;;;;19.23;12.23;;;12.30;68.40;;;;;;5114466;27;20042;-74
2022/03/13 10:50:56;;;;;;;18.63;13.05;;;12.20;67.40;;;;;;5117485;27;20152;-74
2022/03/13 10:53:22;;;;;;;17.50;12.70;;;12.30;68.70;;;;;;5114486;27;20194;-74
2022/03/13 10:56:04;;;;;;;22.10;12.50;;;12.40;68.50;;;;;;5134006;27;20203;-74
2022/03/13 10:58:31;;;;;;;18.53;12.33;;;12.50;67.10;;;;;;5113335;27;20114;-75
2022/03/13 11:01:04;;;;;;;16.73;11.53;;;12.50;67.50;;;;;;5114838;27;20863;-74
2022/03/13 11:03:32;;;;;;;19.03;13.27;;;12.50;67.40;;;;;;5136875;27;20047;-74
2022/03/13 11:05:58;;;;;;;17.73;12.07;;;12.60;67.30;;;;;;5113156;27;20071;-74
2022/03/13 11:08:25;;;;;;;20.67;13.77;;;12.70;67.20;;;;;;5088275;27;20035;-77
2022/03/13 11:10:51;;;;;;;23.97;13.50;;;12.70;66.80;;;;;;5084572;27;20039;-74
2022/03/13 11:13:20;;;;;;;18.30;12.83;;;12.70;66.70;;;;;;5104424;27;20107;-74
2022/03/13 11:15:47;;;;;;;17.57;12.33;;;12.70;66.80;;;;;;5101615;27;20042;-74
2022/03/13 11:18:16;;;;;;;20.53;13.77;;;12.70;66.30;;;;;;5113904;27;20091;-74
2022/03/13 11:20:42;;;;;;;19.83;12.40;;;12.70;65.70;;;;;;5097919;27;20130;-74
2022/03/13 11:23:09;;;;;;;20.07;12.90;;;12.80;65.40;;;;;;5129866;27;20050;-74
2022/03/13 11:25:38;;;;;;;21.70;13.47;;;12.90;65.10;;;;;;5131703;27;20052;-74
2022/03/13 11:28:05;;;;;;;17.90;12.60;;;13.10;65.30;;;;;;5092045;27;20043;-75
2022/03/13 11:30:37;;;;;;;19.43;12.60;;;13.20;65.40;;;;;;5080475;27;20494;-74
2022/03/13 11:33:04;;;;;;;18.03;12.77;;;13.30;64.20;;;;;;5118329;27;20039;-74
2022/03/13 11:35:31;;;;;;;19.40;12.43;;;13.40;63.70;;;;;;5120166;27;20049;-74
2022/03/13 11:38:00;;;;;;;20.93;12.97;;;13.50;63.10;;;;;;5098170;27;20049;-74
2022/03/13 11:40:35;;;;;;;19.93;13.33;;;13.50;62.30;;;;;;5109651;27;20047;-74
2022/03/13 11:43:35;;;;;;;21.43;14.27;;;13.60;62.50;;;;;;5119866;27;20046;-74
2022/03/13 11:46:01;;;;;;;22.20;12.93;;;13.90;62.10;;;;;;5061961;27;20043;-76
2022/03/13 11:48:32;;;;;;;18.33;12.67;;;13.90;61.50;;;;;;5097307;27;20058;-77
2022/03/13 11:51:00;;;;;;;20.33;13.20;;;14.00;60.90;;;;;;5112470;27;20095;-74
2022/03/13 11:53:28;;;;;;;17.63;12.00;;;14.10;60.40;;;;;;5108661;27;20047;-74
2022/03/13 11:56:00;;;;;;;18.60;12.87;;;14.30;60.20;;;;;;5099286;27;20554;-74
2022/03/13 11:58:47;;;;;;;19.13;12.63;;;14.30;58.30;;;;;;5114891;27;20134;-74
2022/03/13 12:01:30;;;;;;;17.93;12.73;;;14.50;59.40;;;;;;5111044;27;20058;-74
2022/03/13 12:04:05;;;;;;;17.17;11.83;;;14.70;59.10;;;;;;5097626;27;20556;-74
2022/03/13 12:06:55;;;;;;;17.77;12.80;;;14.80;57.20;;;;;;5121550;27;20043;-73
2022/03/13 12:09:40;;;;;;;19.43;13.00;;;14.90;56.40;;;;;;5126607;27;20054;-74
2022/03/13 12:12:08;;;;;;;20.50;12.70;;;15.10;56.50;;;;;;5118279;27;20082;-74
2022/03/13 12:15:01;;;;;;;21.90;13.20;;;15.10;57.10;;;;;;5110681;27;20418;-74
2022/03/13 12:17:43;;;;;;;19.43;13.17;;;15.20;54.80;;;;;;5106865;27;20051;-75
2022/03/13 12:20:19;;;;;;;20.60;13.02;;;15.20;55.60;;;;;;5132716;27;20042;-75
2022/03/13 12:22:53;;;;;;;17.93;11.77;;;15.30;55.50;;;;;;5122150;27;20153;-75
2022/03/13 12:25:24;;;;;;;20.20;13.20;;;15.20;55.40;;;;;;5131094;27;20565;-75
2022/03/13 12:27:50;;;;;;;17.63;12.43;;;15.20;55.20;;;;;;5120850;27;20050;-74
2022/03/13 12:30:23;;;;;;;19.13;13.23;;;15.30;55.60;;;;;;5088001;27;20292;-74
2022/03/13 12:32:56;;;;;;;19.30;12.33;;;15.30;54.30;;;;;;5122720;27;20050;-75
2022/03/13 12:35:22;;;;;;;19.37;13.47;;;15.30;54.30;;;;;;5127558;27;20497;-75
2022/03/13 12:38:01;;;;;;;26.57;13.40;;;15.20;54.50;;;;;;5079550;27;20035;-74